Aultbea, United Kingdom

10:49 AM BST on August 01, 2014 (GMT +0100)
Greenstone Point (IROSS-SH4) Elev 23 ft | 57.91 °N, 5.58 °W | Change Station

Current weather conditions updated 28 minutes ago

Scattered Clouds
Scattered Clouds
59.6 °F
Feels Like 59.6 °F
N
1.0
Wind Variable Wind from East
Gusts 5.0 mph

Today is forecast to be nearly the same temperature as yesterday. Mainly cloudy and rainy.

Today
High -- | Low -- °F
--% Chance of Precip.
Yesterday
High -- | Low -- °F
Precip. -- in
5:16 AM 9:40 PM
Waxing Crescent, 25% visible
Pressure 29.65 in
Visibility 6.2 miles
Clouds Few 900 ft
Scattered Clouds 1700 ft
Dew Point 60 °F
Humidity 100%
Rainfall -999.00 in
Snow Depth Not available.
UV 3 out of 12
Pollen Not available.
Air Quality Not available.
Flu Activity Not available.
METAR EGPO 010920Z 16007KT 120V180 9999 FEW009 SCT017 15/12 Q1004

More Conditions Fewer Conditions

Pressure 29.65 in
Visibility 6.2 miles
Clouds Few 900 ft
Scattered Clouds 1700 ft
Dew Point 60 °F
Humidity 100%
Rainfall -999.00 in
Snow Depth Not available.
UV 3 out of 12
Pollen Not available.
Air Quality Not available.
Flu Activity Not available.
METAR EGPO 010920Z 16007KT 120V180 9999 FEW009 SCT017 15/12 Q1004

More Conditions Fewer Conditions

10-Day Weather Forecast

Almanac

Astronomy

Aug. 01, 2014 Rise Set
Actual Time 5:16 AM BST 9:40 PM BST
Civil Twilight 4:22 AM BST 10:32 PM BST
Nautical Twilight 2:54 AM BST 11:58 PM BST
Astronomical Twilight Sun does not rise Sun does not rise
Moon 11:46 AM BST 10:53 PM BST
Length of Visible Light 18h 10m
Length of Day
16h 23m
Tomorrow will be 4m 18s shorter.
Waxing Crescent, 25% of the Moon is Illuminated
Today
Waxing Crescent
Aug 3
First Quarter
Aug 10
Full
Aug 17
Last Quarter
Aug 25
New

Yesterday's Extremes

Country Highs Country Lows

Community

WunderPhotos

Upload Photos

1,739,530 photos uploaded!

Nearby

Snow Depth

Not available.

Earthquake Activity

City Distance Mag. Time & Date
No recent earthquake activity has been reported nearby.
Minimum magnitude displayed is 2.5.

Coastal Water Temperatures

Place Temperature
No Stations Reporting

Nearby Weather Stations

Station Location Temp. Dew Point Humidity Wind Precip. Elev Updated Type
Greenstone Point, Laide 59.6 °F 60 °F 100% East  at  1.0 mph 0.00 in / hr 23 ft 10:21 AM BST Normal
Badbea, Dundonnell, Dundonnell 60.2 °F 55 °F 84% ESE  at  0.0 mph 0.00 in / hr 60 ft 10:45 AM BST Normal
Ullapool, Ardmair 59.5 °F 54 °F 83% NW  at  0.0 mph 0.00 in / hr 10 ft 10:45 AM BST Normal
ullapool- Ardmair Point, Ullapool 59.4 °F 54 °F 83% NNE  at  2.0 mph 0.01 in / hr 20 ft 10:41 AM BST Normal
Cromasaig,Kinlochewe,Scotland, Kinlochewe 65.3 °F 60 °F 82% SSE  at  0.0 mph 0.00 in / hr 160 ft 10:44 AM BST Normal

Show More Stations Show Fewer Stations